YPPH/PER METAR and TAF weather

Enter ICAO airport designator
Station Type Date Time Source
YPPH METAR 2021/04/17 02:00 UTC NOAA

YPPH 170200Z 08008KT CAVOK 22/08 Q1026


Station Type Date Time Source
YPPH Decoded METAR 2021/04/17 02:00 UTC NOAA

Belmont Perth Airport , Australia (YPPH) 31-56S 115-57E 29M
Apr 16, 2021 - 10:00 PM EDT / 2021.04.17 0200 UTC
Wind: from the E (080 degrees) at 9 MPH (8 KT):0
Visibility: greater than 7 mile(s):0
Temperature: 71 F (22 C)
Dew Point: 46 F (8 C)
Relative Humidity: 40%
Pressure (altimeter): 30.30 in. Hg (1026 hPa)
ob: YPPH 170200Z 08008KT CAVOK 22/08 Q1026
cycle: 2

Station Type Date Time Source
YPPH TAF 2021/04/17 03:12 UTC NOAA

TAF
AMD YPPH 170206Z 1703/1806 07013KT CAVOK
FM170600 13008KT CAVOK
FM170900 20010KT CAVOK
FM171400 09008KT CAVOK

Example: see airport list